createdAt,value
2019-01-19T00:00:58.333Z,4.43
2019-01-19T00:04:04.757Z,4.77
2019-01-19T00:07:08.257Z,5.40
2019-01-19T00:09:55.786Z,5.33
2019-01-19T00:12:44.858Z,5.23
2019-01-19T00:15:26.715Z,5.27
2019-01-19T00:18:18.162Z,4.60
2019-01-19T00:21:15.015Z,5.40
2019-01-19T00:24:19.918Z,4.50
2019-01-19T00:27:32.594Z,5.37
2019-01-19T00:30:39.913Z,4.93
2019-01-19T00:33:37.286Z,4.90
2019-01-19T00:36:23.683Z,5.07
2019-01-19T00:39:29.750Z,5.50
2019-01-19T00:42:04.842Z,5.27
2019-01-19T00:44:58.780Z,4.90
2019-01-19T00:47:39.598Z,5.70
2019-01-19T00:50:42.214Z,4.20
2019-01-19T00:53:18.311Z,3.97
2019-01-19T00:56:11.781Z,4.67
2019-01-19T00:58:46.414Z,5.30
2019-01-19T01:01:38.632Z,5.73
2019-01-19T01:04:37.746Z,5.10
2019-01-19T01:07:39.621Z,5.57
2019-01-19T01:10:20.790Z,5.33
2019-01-19T01:13:17.374Z,5.23
2019-01-19T01:16:01.889Z,4.50
2019-01-19T01:18:37.758Z,4.97
2019-01-19T01:21:50.834Z,6.00
2019-01-19T01:24:36.165Z,5.03
2019-01-19T01:27:31.369Z,5.27
2019-01-19T01:30:19.966Z,5.37
2019-01-19T01:33:32.978Z,5.43
2019-01-19T01:36:20.524Z,5.60
2019-01-19T01:39:31.289Z,5.93
2019-01-19T01:42:34.138Z,6.27
2019-01-19T01:45:39.570Z,6.23
2019-01-19T01:49:04.720Z,6.10
2019-01-19T01:51:57.034Z,5.27
2019-01-19T01:54:36.368Z,6.37
2019-01-19T01:57:22.647Z,6.33
2019-01-19T02:00:34.192Z,6.40
2019-01-19T02:03:26.166Z,5.50
2019-01-19T02:06:23.886Z,5.70
2019-01-19T02:09:21.035Z,6.90
2019-01-19T02:12:06.521Z,6.47
2019-01-19T02:15:06.614Z,6.37
2019-01-19T02:18:31.754Z,6.77
2019-01-19T02:21:37.726Z,5.47
2019-01-19T02:24:39.592Z,6.33
2019-01-19T02:27:28.470Z,6.17
2019-01-19T02:30:27.070Z,5.47
2019-01-19T02:33:58.310Z,6.50
2019-01-19T02:37:11.251Z,6.63
2019-01-19T02:40:32.250Z,6.63
2019-01-19T02:43:20.441Z,7.00
2019-01-19T02:46:10.658Z,6.70
2019-01-19T02:48:49.077Z,7.17
2019-01-19T02:52:08.247Z,7.87
2019-01-19T02:54:57.974Z,6.63
2019-01-19T02:58:03.958Z,7.27
2019-01-19T03:01:10.102Z,7.60
2019-01-19T03:04:01.590Z,7.10
2019-01-19T03:06:38.831Z,7.97
2019-01-19T03:09:20.482Z,7.27
2019-01-19T03:12:25.678Z,6.17
2019-01-19T03:15:16.274Z,7.03
2019-01-19T03:17:59.076Z,9.23
2019-01-19T03:21:11.334Z,8.47
2019-01-19T03:24:07.388Z,7.70
2019-01-19T03:27:17.069Z,7.63
2019-01-19T03:30:22.868Z,7.20
2019-01-19T03:33:39.079Z,7.83
2019-01-19T03:36:45.758Z,7.70
2019-01-19T03:39:45.738Z,6.57
2019-01-19T03:42:42.368Z,7.07
2019-01-19T03:45:48.375Z,6.47
2019-01-19T03:49:03.391Z,7.97
2019-01-19T03:51:59.935Z,8.53
2019-01-19T03:54:55.794Z,8.20
2019-01-19T03:57:53.726Z,7.20
2019-01-19T04:00:40.385Z,7.33
2019-01-19T04:04:01.964Z,7.70
2019-01-19T04:07:12.090Z,9.27
2019-01-19T04:10:05.979Z,8.40
2019-01-19T04:13:12.919Z,8.17
2019-01-19T04:16:22.361Z,6.87
2019-01-19T04:18:57.695Z,7.10
2019-01-19T04:21:41.706Z,6.87
2019-01-19T04:24:15.490Z,8.07
2019-01-19T04:26:46.868Z,8.13
2019-01-19T04:29:15.820Z,7.77
2019-01-19T04:31:44.760Z,6.80
2019-01-19T04:34:14.393Z,7.73
2019-01-19T04:36:43.653Z,7.27
2019-01-19T04:39:12.861Z,7.20
2019-01-19T04:41:41.810Z,7.67
2019-01-19T04:44:10.828Z,8.10
2019-01-19T04:46:39.759Z,8.17
2019-01-19T04:49:09.212Z,8.03
2019-01-19T04:51:39.139Z,8.23
2019-01-19T04:54:08.900Z,7.67
2019-01-19T04:56:37.898Z,10.17
2019-01-19T04:59:06.855Z,9.00
2019-01-19T05:01:35.872Z,8.20
2019-01-19T05:04:04.838Z,9.57
2019-01-19T05:06:35.523Z,11.37
2019-01-19T05:09:07.535Z,8.00
2019-01-19T05:11:36.460Z,9.80
2019-01-19T05:14:06.088Z,8.37
2019-01-19T05:16:35.678Z,10.30
2019-01-19T05:19:04.684Z,9.20
2019-01-19T05:21:41.666Z,9.63
2019-01-19T05:24:10.598Z,9.60
2019-01-19T05:26:39.816Z,8.63
2019-01-19T05:29:14.413Z,9.57
2019-01-19T05:31:46.270Z,8.93
2019-01-19T05:34:16.605Z,9.73
2019-01-19T05:36:45.722Z,8.50
2019-01-19T05:39:14.702Z,8.97
2019-01-19T05:41:43.602Z,9.17
2019-01-19T05:44:12.744Z,9.00
2019-01-19T05:46:41.887Z,9.90
2019-01-19T05:49:10.856Z,9.00
2019-01-19T05:51:39.810Z,9.77
2019-01-19T05:54:08.842Z,8.37
2019-01-19T05:56:37.801Z,9.17
2019-01-19T05:59:06.809Z,9.17
2019-01-19T06:01:35.859Z,9.20
2019-01-19T06:04:05.122Z,8.17
2019-01-19T06:06:36.964Z,8.63
2019-01-19T06:09:09.851Z,9.33
2019-01-19T06:11:38.834Z,8.90
2019-01-19T06:14:07.876Z,8.77
2019-01-19T06:16:38.154Z,9.00
2019-01-19T06:19:07.761Z,9.97
2019-01-19T06:21:44.750Z,8.40
2019-01-19T06:24:14.528Z,8.47
2019-01-19T06:26:43.547Z,8.73
2019-01-19T06:29:12.558Z,9.00
2019-01-19T06:31:41.555Z,9.33
2019-01-19T06:34:10.486Z,10.43
2019-01-19T06:36:39.439Z,8.80
2019-01-19T06:39:09.445Z,9.40
2019-01-19T06:41:38.490Z,9.80
2019-01-19T06:44:07.427Z,10.30
2019-01-19T06:46:36.443Z,10.20
2019-01-19T06:49:05.267Z,9.63
2019-01-19T06:51:34.298Z,10.20
2019-01-19T06:54:03.325Z,9.03
2019-01-19T06:56:32.304Z,10.03
2019-01-19T06:59:01.136Z,9.80
2019-01-19T07:01:30.088Z,9.40
2019-01-19T07:03:58.958Z,8.40
2019-01-19T07:06:28.001Z,11.33
2019-01-19T07:08:56.946Z,9.63
2019-01-19T07:11:25.989Z,10.40
2019-01-19T07:13:54.918Z,9.77
2019-01-19T07:16:24.126Z,11.63
2019-01-19T07:18:54.296Z,10.13
2019-01-19T07:21:23.342Z,10.67
2019-01-19T07:23:52.391Z,9.57
2019-01-19T07:26:21.330Z,9.70
2019-01-19T07:28:50.275Z,8.13
2019-01-19T07:31:19.451Z,11.37
2019-01-19T07:33:48.724Z,10.53
2019-01-19T07:36:27.237Z,9.73
2019-01-19T07:38:58.169Z,8.83
2019-01-19T07:41:31.212Z,8.67
2019-01-19T07:44:11.183Z,8.03
2019-01-19T07:46:42.037Z,8.80
2019-01-19T07:49:14.291Z,7.97
2019-01-19T07:51:44.811Z,9.50
2019-01-19T07:54:17.696Z,7.97
2019-01-19T07:56:47.645Z,8.97
2019-01-19T07:59:17.734Z,10.37
2019-01-19T08:01:48.227Z,10.77
2019-01-19T08:04:20.684Z,9.47
2019-01-19T08:06:52.679Z,9.67
2019-01-19T08:09:26.170Z,9.97
2019-01-19T08:11:59.549Z,9.70
2019-01-19T08:14:35.352Z,8.93
2019-01-19T08:17:07.492Z,8.67
2019-01-19T08:19:39.017Z,9.77
2019-01-19T08:22:10.055Z,8.80
2019-01-19T08:24:40.091Z,10.47
2019-01-19T08:27:11.902Z,8.87
2019-01-19T08:29:43.429Z,9.87
2019-01-19T08:32:14.741Z,8.10
2019-01-19T08:34:48.235Z,9.77
2019-01-19T08:37:24.386Z,9.73
2019-01-19T08:39:53.236Z,7.47
2019-01-19T08:42:27.045Z,8.13
2019-01-19T08:45:01.731Z,8.97
2019-01-19T08:47:31.988Z,7.90
2019-01-19T08:50:05.158Z,7.87
2019-01-19T08:52:34.887Z,7.30
2019-01-19T08:55:05.514Z,9.13
2019-01-19T08:57:39.019Z,8.93
2019-01-19T09:00:14.247Z,9.43
2019-01-19T09:02:47.957Z,8.13
2019-01-19T09:05:18.488Z,8.53
2019-01-19T09:07:51.742Z,8.13
2019-01-19T09:10:25.509Z,7.97
2019-01-19T09:12:55.611Z,7.60
2019-01-19T09:15:24.967Z,8.00
2019-01-19T09:17:56.932Z,8.30
2019-01-19T09:20:31.596Z,8.47
2019-01-19T09:23:05.593Z,7.70
2019-01-19T09:25:41.378Z,8.63
2019-01-19T09:28:14.851Z,7.67
2019-01-19T09:30:45.008Z,7.77
2019-01-19T09:33:18.836Z,8.13
2019-01-19T09:35:49.464Z,7.03
2019-01-19T09:38:19.774Z,7.63
2019-01-19T09:40:48.757Z,7.40
2019-01-19T09:43:18.943Z,6.77
2019-01-19T09:45:50.620Z,7.57
2019-01-19T09:48:20.867Z,7.70
2019-01-19T09:50:51.059Z,6.73
2019-01-19T09:53:22.206Z,6.87
2019-01-19T09:55:52.350Z,7.67
2019-01-19T09:58:22.801Z,6.63
2019-01-19T10:00:52.436Z,6.20
2019-01-19T10:03:24.135Z,6.50
2019-01-19T10:05:56.902Z,6.37
2019-01-19T10:08:26.804Z,5.80
2019-01-19T10:10:57.510Z,5.90
2019-01-19T10:13:30.487Z,6.60
2019-01-19T10:15:59.993Z,5.23
2019-01-19T10:18:31.731Z,6.30
2019-01-19T10:21:01.432Z,5.90
2019-01-19T10:23:32.373Z,5.30
2019-01-19T10:26:05.952Z,5.00
2019-01-19T10:28:35.612Z,5.90
2019-01-19T10:31:04.949Z,6.40
2019-01-19T10:33:33.823Z,5.37
2019-01-19T10:36:02.755Z,5.00
2019-01-19T10:38:31.785Z,5.43
2019-01-19T10:41:00.741Z,5.27
2019-01-19T10:43:29.695Z,4.43
2019-01-19T10:45:58.622Z,4.83
2019-01-19T10:48:27.568Z,5.13
2019-01-19T10:50:56.563Z,5.50
2019-01-19T10:53:26.852Z,5.30
2019-01-19T10:55:55.774Z,5.33
2019-01-19T10:58:24.790Z,5.17
2019-01-19T11:00:53.994Z,5.33
2019-01-19T11:03:25.605Z,5.63
2019-01-19T11:05:54.610Z,4.87
2019-01-19T11:08:24.771Z,4.67
2019-01-19T11:10:54.476Z,4.80
2019-01-19T11:13:27.722Z,5.27
2019-01-19T11:15:56.766Z,4.40
2019-01-19T11:18:25.983Z,5.33
2019-01-19T11:20:55.294Z,4.73
2019-01-19T11:23:24.195Z,4.07
2019-01-19T11:25:53.063Z,4.10
2019-01-19T11:28:23.318Z,4.77
2019-01-19T11:30:52.250Z,4.47
2019-01-19T11:33:21.121Z,4.50
2019-01-19T11:35:50.197Z,5.00
2019-01-19T11:38:20.719Z,4.50
2019-01-19T11:40:49.673Z,4.80
2019-01-19T11:43:18.634Z,4.40
2019-01-19T11:45:47.726Z,4.10
2019-01-19T11:48:17.517Z,4.30
2019-01-19T11:50:46.638Z,4.10
2019-01-19T11:53:15.609Z,4.30
2019-01-19T11:55:46.067Z,3.37
2019-01-19T11:58:15.238Z,3.87
2019-01-19T12:00:44.292Z,3.67
2019-01-19T12:03:13.292Z,3.40
2019-01-19T12:05:44.424Z,3.63
2019-01-19T12:08:19.517Z,3.40
2019-01-19T12:10:45.086Z,3.80
2019-01-19T12:13:14.046Z,3.17
2019-01-19T12:15:42.992Z,3.60
2019-01-19T12:18:13.327Z,4.00
2019-01-19T12:20:50.877Z,3.77
2019-01-19T12:23:21.028Z,4.03
2019-01-19T12:25:49.925Z,3.90
2019-01-19T12:28:18.842Z,2.67
2019-01-19T12:30:47.823Z,3.90
2019-01-19T12:33:16.754Z,3.00
2019-01-19T12:35:45.792Z,3.50
2019-01-19T12:38:14.853Z,3.33
2019-01-19T12:40:43.902Z,4.13
2019-01-19T12:43:19.794Z,3.13
2019-01-19T12:45:51.541Z,2.73
2019-01-19T12:48:20.554Z,3.20
2019-01-19T12:50:49.550Z,2.77
2019-01-19T12:53:18.642Z,3.10
2019-01-19T12:55:47.655Z,3.33
2019-01-19T12:58:16.663Z,3.57
2019-01-19T13:00:45.688Z,3.00
2019-01-19T13:03:14.698Z,2.80
2019-01-19T13:06:13.243Z,2.83
2019-01-19T13:08:42.372Z,2.87
2019-01-19T13:11:51.310Z,3.00
2019-01-19T13:14:20.265Z,3.50
2019-01-19T13:17:15.977Z,2.83
2019-01-19T13:20:11.941Z,2.30
2019-01-19T13:23:21.986Z,2.70
2019-01-19T13:26:22.354Z,4.37
2019-01-19T13:29:31.446Z,3.37
2019-01-19T13:32:37.990Z,2.93
2019-01-19T13:35:50.034Z,4.30
2019-01-19T13:38:56.698Z,3.27
2019-01-19T13:42:01.122Z,2.60
2019-01-19T13:45:01.259Z,2.93
2019-01-19T13:48:01.658Z,3.47
2019-01-19T13:51:00.898Z,3.97
2019-01-19T13:54:09.710Z,2.43
2019-01-19T13:57:07.321Z,4.77
2019-01-19T14:00:18.638Z,2.80
2019-01-19T14:03:12.182Z,3.07
2019-01-19T14:06:18.266Z,3.00
2019-01-19T14:09:17.905Z,2.73
2019-01-19T14:12:11.582Z,3.67
2019-01-19T14:15:08.395Z,2.90
2019-01-19T14:18:02.009Z,3.37
2019-01-19T14:21:24.490Z,3.10
2019-01-19T14:24:03.194Z,2.33
2019-01-19T14:26:58.068Z,3.03
2019-01-19T14:29:50.323Z,2.63
2019-01-19T14:33:05.207Z,2.77
2019-01-19T14:35:56.595Z,3.93
2019-01-19T14:39:15.804Z,3.10
2019-01-19T14:42:10.072Z,2.57
2019-01-19T14:45:11.998Z,3.37
2019-01-19T14:48:11.796Z,2.70
2019-01-19T14:51:20.779Z,3.23
2019-01-19T14:54:35.663Z,3.33
2019-01-19T14:57:32.804Z,2.97
2019-01-19T15:00:20.308Z,2.90
2019-01-19T15:03:33.380Z,3.20
2019-01-19T15:06:28.165Z,3.10
2019-01-19T15:09:21.976Z,3.17
2019-01-19T15:12:19.734Z,4.17
2019-01-19T15:15:22.439Z,3.17
2019-01-19T15:18:06.201Z,3.40
2019-01-19T15:21:18.961Z,4.53
2019-01-19T15:24:13.778Z,3.67
2019-01-19T15:27:17.371Z,4.47
2019-01-19T15:30:31.781Z,4.10
2019-01-19T15:33:32.522Z,3.30
2019-01-19T15:36:16.911Z,4.03
2019-01-19T15:39:13.629Z,4.10
2019-01-19T15:42:23.198Z,4.30
2019-01-19T15:45:42.508Z,5.13
2019-01-19T15:49:03.288Z,4.23
2019-01-19T15:52:41.331Z,3.90
2019-01-19T15:56:13.354Z,4.17
2019-01-19T15:59:32.937Z,4.27
2019-01-19T16:03:16.705Z,4.30
2019-01-19T16:06:17.594Z,4.30
2019-01-19T16:09:19.643Z,3.73
2019-01-19T16:12:19.515Z,4.83
2019-01-19T16:15:22.205Z,4.17
2019-01-19T16:18:30.869Z,4.67
2019-01-19T16:22:14.406Z,4.43
2019-01-19T16:25:24.773Z,3.73
2019-01-19T16:28:33.514Z,4.67
2019-01-19T16:31:45.886Z,3.50
2019-01-19T16:34:49.034Z,4.67
2019-01-19T16:37:53.879Z,3.63
2019-01-19T16:40:59.784Z,4.27
2019-01-19T16:43:44.368Z,3.77
2019-01-19T16:46:44.985Z,3.93
2019-01-19T16:49:37.477Z,4.60
2019-01-19T16:52:39.778Z,4.60
2019-01-19T16:55:56.452Z,3.83
2019-01-19T16:58:32.685Z,3.57
2019-01-19T17:01:22.982Z,3.30
2019-01-19T17:04:20.047Z,3.67
2019-01-19T17:07:15.018Z,4.17
2019-01-19T17:09:57.039Z,3.83
2019-01-19T17:13:30.780Z,3.90
2019-01-19T17:16:42.294Z,4.87
2019-01-19T17:19:44.744Z,3.53
2019-01-19T17:22:40.802Z,3.73
2019-01-19T17:25:43.990Z,3.80
2019-01-19T17:28:49.983Z,4.83
2019-01-19T17:32:03.486Z,4.00
2019-01-19T17:35:07.023Z,4.93
2019-01-19T17:37:57.628Z,4.80
2019-01-19T17:41:04.021Z,5.00
2019-01-19T17:43:48.967Z,4.27
2019-01-19T17:46:39.826Z,5.00
2019-01-19T17:49:48.062Z,5.13
2019-01-19T17:52:54.467Z,4.50
2019-01-19T17:56:00.239Z,4.57
2019-01-19T17:59:10.785Z,4.80
2019-01-19T18:02:11.250Z,5.53
2019-01-19T18:04:55.881Z,4.23
2019-01-19T18:08:11.698Z,4.00
2019-01-19T18:10:59.293Z,4.03
2019-01-19T18:13:54.298Z,4.93
2019-01-19T18:17:04.334Z,4.47
2019-01-19T18:19:41.597Z,4.80
2019-01-19T18:22:35.409Z,5.03
2019-01-19T18:25:46.522Z,4.83
2019-01-19T18:28:38.939Z,4.90
2019-01-19T18:32:00.469Z,4.10
2019-01-19T18:35:28.809Z,5.37
2019-01-19T18:38:27.840Z,4.87
2019-01-19T18:41:20.406Z,5.73
2019-01-19T18:44:15.949Z,5.13
2019-01-19T18:47:07.275Z,3.93
2019-01-19T18:50:31.590Z,5.30
2019-01-19T18:53:52.145Z,5.27
2019-01-19T18:57:04.485Z,5.67
2019-01-19T19:00:06.420Z,4.47
2019-01-19T19:02:52.358Z,5.10
2019-01-19T19:06:04.268Z,5.40
2019-01-19T19:09:29.899Z,4.90
2019-01-19T19:12:45.588Z,5.17
2019-01-19T19:15:45.514Z,5.60
2019-01-19T19:18:32.484Z,5.90
2019-01-19T19:21:40.087Z,4.80
2019-01-19T19:24:46.360Z,4.37
2019-01-19T19:27:58.082Z,6.60
2019-01-19T19:30:39.055Z,5.27
2019-01-19T19:33:46.421Z,5.40
2019-01-19T19:36:57.619Z,4.43
2019-01-19T19:40:10.998Z,6.20
2019-01-19T19:43:33.183Z,6.03
2019-01-19T19:46:40.320Z,5.77
2019-01-19T19:49:35.222Z,4.23
2019-01-19T19:52:07.478Z,6.50
2019-01-19T19:54:40.455Z,5.83
2019-01-19T19:57:10.119Z,5.50
2019-01-19T19:59:39.364Z,5.37
2019-01-19T20:02:08.482Z,7.00
2019-01-19T20:04:41.041Z,5.40
2019-01-19T20:07:10.495Z,5.60
2019-01-19T20:09:39.533Z,6.63
2019-01-19T20:12:09.081Z,6.03
2019-01-19T20:14:38.322Z,6.57
2019-01-19T20:17:07.980Z,6.23
2019-01-19T20:19:37.063Z,7.43
2019-01-19T20:22:07.331Z,6.17
2019-01-19T20:24:36.436Z,6.57
2019-01-19T20:27:05.479Z,6.97
2019-01-19T20:29:34.359Z,6.80
2019-01-19T20:32:05.594Z,7.53
2019-01-19T20:34:34.534Z,6.30
2019-01-19T20:37:03.550Z,5.93
2019-01-19T20:39:32.548Z,6.50
2019-01-19T20:42:01.502Z,6.67
2019-01-19T20:44:30.372Z,6.30
2019-01-19T20:46:59.654Z,6.17
2019-01-19T20:49:28.952Z,5.77
2019-01-19T20:51:57.883Z,5.93
2019-01-19T20:54:26.902Z,6.60
2019-01-19T20:56:55.853Z,6.30
2019-01-19T20:59:24.851Z,6.00
2019-01-19T21:01:53.886Z,7.20
2019-01-19T21:04:22.773Z,7.07
2019-01-19T21:06:51.615Z,6.70
2019-01-19T21:09:20.567Z,6.17
2019-01-19T21:11:49.434Z,5.83
2019-01-19T21:14:18.400Z,6.97
2019-01-19T21:16:47.373Z,9.83
2019-01-19T21:19:16.400Z,8.13
2019-01-19T21:21:45.267Z,6.57
2019-01-19T21:24:14.249Z,6.47
2019-01-19T21:26:43.264Z,6.43
2019-01-19T21:29:12.175Z,6.73
2019-01-19T21:31:41.038Z,7.13
2019-01-19T21:34:10.059Z,8.67
2019-01-19T21:36:39.010Z,6.97
2019-01-19T21:39:08.828Z,6.17
2019-01-19T21:41:37.703Z,7.50
2019-01-19T21:44:06.681Z,6.20
2019-01-19T21:46:35.561Z,7.27
2019-01-19T21:49:04.707Z,6.73
2019-01-19T21:51:34.173Z,7.30
2019-01-19T21:54:03.699Z,7.63
2019-01-19T21:56:33.126Z,7.13
2019-01-19T21:59:02.572Z,6.47
2019-01-19T22:01:32.284Z,7.50
2019-01-19T22:04:01.350Z,6.90
2019-01-19T22:06:30.241Z,7.23
2019-01-19T22:08:59.176Z,7.47
2019-01-19T22:11:28.261Z,7.00
2019-01-19T22:13:57.177Z,7.50
2019-01-19T22:16:26.201Z,6.67
2019-01-19T22:18:58.740Z,7.23
2019-01-19T22:21:28.352Z,7.63
2019-01-19T22:23:57.957Z,8.23
2019-01-19T22:26:27.785Z,6.63
2019-01-19T22:28:57.245Z,6.40
2019-01-19T22:31:26.992Z,7.30
2019-01-19T22:33:56.449Z,6.90
2019-01-19T22:36:26.332Z,7.63
2019-01-19T22:38:56.100Z,7.60
2019-01-19T22:41:25.666Z,6.83
2019-01-19T22:43:55.673Z,6.70
2019-01-19T22:46:25.246Z,5.90
2019-01-19T22:48:54.967Z,7.27
2019-01-19T22:51:24.452Z,6.17
2019-01-19T22:53:54.086Z,6.97
2019-01-19T22:56:23.533Z,7.63
2019-01-19T22:58:52.950Z,6.97
2019-01-19T23:01:47.315Z,7.73
2019-01-19T23:04:17.005Z,7.63
2019-01-19T23:06:46.527Z,8.17
2019-01-19T23:09:16.583Z,6.80
2019-01-19T23:11:46.440Z,7.20
2019-01-19T23:14:16.413Z,7.80
2019-01-19T23:16:46.505Z,6.73
2019-01-19T23:19:15.930Z,7.90
2019-01-19T23:21:45.492Z,6.70
2019-01-19T23:24:14.841Z,6.57
2019-01-19T23:26:44.834Z,7.70
2019-01-19T23:29:14.664Z,6.53
2019-01-19T23:31:44.517Z,7.63
2019-01-19T23:34:14.238Z,7.47
2019-01-19T23:36:44.222Z,7.60
2019-01-19T23:39:14.015Z,8.27
2019-01-19T23:41:43.834Z,7.83
2019-01-19T23:44:13.864Z,6.40
2019-01-19T23:46:43.644Z,7.40
2019-01-19T23:49:13.214Z,5.90
2019-01-19T23:51:42.972Z,6.77
2019-01-19T23:54:14.167Z,6.63
2019-01-19T23:56:45.552Z,6.77
2019-01-19T23:59:15.259Z,7.10
